Time;durP1;ratioP1;P1;durP2;ratioP2;P2;SDS_P1;SDS_P2;PMS_P1;PMS_P2;Temp;Humidity;BMP_temperature;BMP_pressure;BME280_temperature;BME280_humidity;BME280_pressure;Samples;Min_cycle;Max_cycle;Signal;HPM_P1;HPM_P2
2024/01/02 00:00:27;;;;;;;4.97;1.52;;;;;;;;;;5068602;28;20091;-81
2024/01/02 00:03:12;;;;;;;5.30;1.58;;;;;;;;;;5068349;28;20517;-82
2024/01/02 00:05:57;;;;;;;5.65;1.95;;;;;;;;;;5068216;28;20029;-82
2024/01/02 00:08:42;;;;;;;5.13;1.60;;;;;;;;;;5068303;28;20029;-83
2024/01/02 00:11:28;;;;;;;4.25;1.95;;;;;;;;;;5068192;28;20060;-83
2024/01/02 00:14:13;;;;;;;4.07;1.30;;;;;;;;;;5067866;28;20047;-83
2024/01/02 00:16:59;;;;;;;4.13;1.70;;;;;;;;;;5067988;28;20029;-82
2024/01/02 00:19:44;;;;;;;5.53;1.05;;;;;;;;;;5068242;28;20576;-83
2024/01/02 00:22:29;;;;;;;2.75;1.10;;;;;;;;;;5067890;28;20052;-80
2024/01/02 00:25:15;;;;;;;2.60;1.10;;;;;;;;;;5067738;28;20033;-81
2024/01/02 00:28:00;;;;;;;3.33;1.48;;;;;;;;;;5082932;28;20027;-81
2024/01/02 00:30:46;;;;;;;2.47;1.30;;;;;;;;;;5085437;28;20374;-81
2024/01/02 00:33:31;;;;;;;5.50;1.65;;;;;;;;;;5073946;28;20724;-81
2024/01/02 00:36:16;;;;;;;6.28;1.02;;;;;;;;;;5080247;28;20040;-81
2024/01/02 00:39:02;;;;;;;3.80;1.02;;;;;;;;;;5087771;28;20063;-80
2024/01/02 00:41:49;;;;;;;4.07;1.20;;;;;;;;;;5087695;28;20179;-80
2024/01/02 00:44:34;;;;;;;4.65;1.75;;;;;;;;;;5087820;28;20032;-80
2024/01/02 00:47:21;;;;;;;4.40;0.93;;;;;;;;;;5087882;28;20020;-80
2024/01/02 00:50:06;;;;;;;5.72;1.25;;;;;;;;;;5087994;28;20066;-80
2024/01/02 00:52:51;;;;;;;3.13;0.90;;;;;;;;;;5079947;28;20257;-80
2024/01/02 00:55:37;;;;;;;3.38;1.00;;;;;;;;;;5067283;28;20050;-80
2024/01/02 00:58:22;;;;;;;3.95;1.08;;;;;;;;;;5067506;28;20081;-80
2024/01/02 01:01:07;;;;;;;4.68;1.13;;;;;;;;;;5067650;28;20024;-82
2024/01/02 01:03:52;;;;;;;2.65;1.02;;;;;;;;;;5067423;28;20315;-82
2024/01/02 01:06:37;;;;;;;1.95;0.93;;;;;;;;;;5066969;28;20086;-82
2024/01/02 01:09:23;;;;;;;2.88;0.90;;;;;;;;;;5067529;28;20037;-85
2024/01/02 01:12:08;;;;;;;4.63;1.23;;;;;;;;;;5075871;28;20055;-83
2024/01/02 01:14:54;;;;;;;2.47;0.90;;;;;;;;;;5080934;28;20107;-81
2024/01/02 01:17:39;;;;;;;3.55;1.20;;;;;;;;;;5067021;28;20394;-82
2024/01/02 01:20:24;;;;;;;2.42;1.20;;;;;;;;;;5067302;28;20037;-82
2024/01/02 01:23:09;;;;;;;1.17;0.85;;;;;;;;;;5067109;28;20123;-82
2024/01/02 01:25:55;;;;;;;3.72;0.98;;;;;;;;;;5076707;28;20111;-82
2024/01/02 01:28:40;;;;;;;3.38;1.48;;;;;;;;;;5082272;28;20040;-82
2024/01/02 01:31:25;;;;;;;1.25;1.02;;;;;;;;;;5073628;28;20028;-81
2024/01/02 01:34:11;;;;;;;2.55;1.10;;;;;;;;;;5070977;28;20036;-81
2024/01/02 01:36:56;;;;;;;4.35;1.10;;;;;;;;;;5084865;28;20028;-82
2024/01/02 01:39:41;;;;;;;1.92;1.00;;;;;;;;;;5081412;28;20115;-81
2024/01/02 01:42:26;;;;;;;1.55;0.98;;;;;;;;;;5067943;28;20024;-80
2024/01/02 01:45:12;;;;;;;3.35;0.90;;;;;;;;;;5070437;28;20028;-81
2024/01/02 01:48:06;;;;;;;4.75;1.20;;;;;;;;;;5079247;28;20531;-81
2024/01/02 01:50:51;;;;;;;4.53;0.85;;;;;;;;;;5070893;28;20344;-82
2024/01/02 01:53:38;;;;;;;5.35;1.40;;;;;;;;;;5070502;28;20033;-81
2024/01/02 01:56:23;;;;;;;1.77;0.90;;;;;;;;;;5070905;28;20039;-81
2024/01/02 01:59:09;;;;;;;1.75;0.98;;;;;;;;;;5071041;28;20025;-81
2024/01/02 02:01:55;;;;;;;2.50;1.00;;;;;;;;;;5070547;28;20112;-81
2024/01/02 02:04:43;;;;;;;4.20;0.98;;;;;;;;;;5071028;28;20033;-80
2024/01/02 02:07:29;;;;;;;1.88;1.02;;;;;;;;;;5057038;28;20108;-80
2024/01/02 02:10:15;;;;;;;2.78;0.95;;;;;;;;;;5070406;28;20021;-81
2024/01/02 02:13:00;;;;;;;2.30;0.82;;;;;;;;;;5070387;28;20023;-80
2024/01/02 02:15:48;;;;;;;1.67;0.80;;;;;;;;;;5070367;28;20016;-81
2024/01/02 02:18:33;;;;;;;3.83;1.00;;;;;;;;;;5070813;28;20064;-83
2024/01/02 02:21:19;;;;;;;3.42;1.60;;;;;;;;;;5071583;28;20043;-83
2024/01/02 02:24:04;;;;;;;1.42;0.95;;;;;;;;;;5090620;28;20085;-82
2024/01/02 02:26:49;;;;;;;2.88;0.80;;;;;;;;;;5099203;28;20088;-83
2024/01/02 02:29:34;;;;;;;5.03;0.90;;;;;;;;;;5076391;28;20024;-82
2024/01/02 02:32:21;;;;;;;1.35;0.80;;;;;;;;;;5084262;28;20028;-83
2024/01/02 02:35:08;;;;;;;1.13;0.80;;;;;;;;;;5073576;28;20038;-81
2024/01/02 02:37:54;;;;;;;4.70;1.25;;;;;;;;;;5087984;28;20039;-82
2024/01/02 02:40:39;;;;;;;3.80;0.90;;;;;;;;;;5070376;28;20035;-83
2024/01/02 02:43:25;;;;;;;2.15;0.80;;;;;;;;;;5071446;28;20027;-83
2024/01/02 02:46:10;;;;;;;3.08;0.90;;;;;;;;;;5069799;28;20025;-82
2024/01/02 02:48:55;;;;;;;1.95;1.30;;;;;;;;;;5070059;28;20024;-82
2024/01/02 02:51:40;;;;;;;0.95;0.85;;;;;;;;;;5072958;28;20040;-82
2024/01/02 02:54:25;;;;;;;4.18;0.90;;;;;;;;;;5076335;28;20028;-82
2024/01/02 02:57:15;;;;;;;2.28;1.20;;;;;;;;;;5077329;28;20119;-82
2024/01/02 03:00:00;;;;;;;2.05;0.88;;;;;;;;;;5098925;28;20035;-82
2024/01/02 03:02:45;;;;;;;2.80;1.10;;;;;;;;;;5098493;28;20050;-82
2024/01/02 03:05:30;;;;;;;2.47;0.85;;;;;;;;;;5114641;28;20027;-82
2024/01/02 03:08:15;;;;;;;2.40;1.10;;;;;;;;;;5088967;28;20043;-81
2024/01/02 03:11:00;;;;;;;2.60;1.35;;;;;;;;;;5090612;28;20471;-82
2024/01/02 03:13:45;;;;;;;2.55;1.08;;;;;;;;;;5080063;28;20035;-82
2024/01/02 03:16:30;;;;;;;2.38;1.00;;;;;;;;;;5070603;28;20505;-81
2024/01/02 03:19:16;;;;;;;3.20;0.98;;;;;;;;;;5086206;28;20024;-81
2024/01/02 03:22:01;;;;;;;1.17;0.80;;;;;;;;;;5090231;28;20047;-81
2024/01/02 03:24:46;;;;;;;1.98;0.80;;;;;;;;;;5089707;28;20424;-81
2024/01/02 03:27:32;;;;;;;2.17;0.80;;;;;;;;;;5104421;28;20024;-80
2024/01/02 03:30:18;;;;;;;2.20;1.02;;;;;;;;;;5070875;28;20028;-84
2024/01/02 03:33:03;;;;;;;2.97;1.17;;;;;;;;;;5088847;28;20024;-84
2024/01/02 03:35:48;;;;;;;1.08;0.90;;;;;;;;;;5078230;28;20020;-84
2024/01/02 03:38:34;;;;;;;1.40;0.93;;;;;;;;;;5084759;28;20012;-83
2024/01/02 03:41:19;;;;;;;2.60;0.60;;;;;;;;;;5069440;28;20032;-83
2024/01/02 03:44:05;;;;;;;2.42;1.45;;;;;;;;;;5069045;28;20021;-84
2024/01/02 03:46:50;;;;;;;3.95;0.85;;;;;;;;;;5069180;28;20506;-82
2024/01/02 03:49:35;;;;;;;2.10;0.85;;;;;;;;;;5077369;28;20027;-83
2024/01/02 03:52:20;;;;;;;1.38;0.70;;;;;;;;;;5055086;28;20025;-83
2024/01/02 03:55:06;;;;;;;1.02;0.65;;;;;;;;;;5069252;28;20032;-82
2024/01/02 03:57:51;;;;;;;1.88;0.68;;;;;;;;;;5068601;28;20036;-83
2024/01/02 04:00:36;;;;;;;2.40;0.82;;;;;;;;;;5068935;28;20119;-82
2024/01/02 04:03:22;;;;;;;0.57;0.57;;;;;;;;;;5068803;28;20025;-81
2024/01/02 04:06:07;;;;;;;1.67;0.70;;;;;;;;;;5067991;28;20017;-80
2024/01/02 04:08:52;;;;;;;1.02;0.60;;;;;;;;;;5068582;28;20367;-81
2024/01/02 04:11:38;;;;;;;2.20;0.65;;;;;;;;;;5068628;28;20029;-81
2024/01/02 04:14:23;;;;;;;0.90;0.60;;;;;;;;;;5075154;28;20077;-81
2024/01/02 04:17:08;;;;;;;0.70;0.60;;;;;;;;;;5088767;28;20054;-81
2024/01/02 04:19:53;;;;;;;0.80;0.60;;;;;;;;;;5088292;28;20036;-81
2024/01/02 04:22:39;;;;;;;2.17;0.60;;;;;;;;;;5088335;28;20072;-81
2024/01/02 04:25:25;;;;;;;0.50;0.50;;;;;;;;;;5088680;28;20114;-81
2024/01/02 04:28:10;;;;;;;0.80;0.60;;;;;;;;;;5107025;28;20130;-81
2024/01/02 04:30:55;;;;;;;0.47;0.43;;;;;;;;;;5070679;28;20024;-81
2024/01/02 04:33:41;;;;;;;4.22;1.05;;;;;;;;;;5087044;28;20039;-81
2024/01/02 04:36:26;;;;;;;2.08;1.02;;;;;;;;;;5082382;28;20039;-80
2024/01/02 04:39:11;;;;;;;0.60;0.60;;;;;;;;;;5095634;28;20498;-80
2024/01/02 04:41:56;;;;;;;0.82;0.60;;;;;;;;;;5068006;28;20099;-81
2024/01/02 04:44:42;;;;;;;0.60;0.50;;;;;;;;;;5068231;28;20309;-84
2024/01/02 04:47:27;;;;;;;1.80;0.82;;;;;;;;;;5068232;28;20029;-82
2024/01/02 04:50:12;;;;;;;1.85;0.60;;;;;;;;;;5068493;28;20089;-82
2024/01/02 04:52:58;;;;;;;0.60;0.60;;;;;;;;;;5068340;28;20261;-83
2024/01/02 04:55:43;;;;;;;1.45;0.65;;;;;;;;;;5067955;28;20024;-83
2024/01/02 04:58:28;;;;;;;0.77;0.70;;;;;;;;;;5068178;28;20098;-83
2024/01/02 05:01:13;;;;;;;2.28;0.60;;;;;;;;;;5067092;28;20402;-83
2024/01/02 05:03:59;;;;;;;0.60;0.60;;;;;;;;;;5068345;28;20032;-82
2024/01/02 05:06:44;;;;;;;1.13;0.95;;;;;;;;;;5067822;28;20104;-82
2024/01/02 05:09:29;;;;;;;1.27;0.73;;;;;;;;;;5074467;28;20023;-82
2024/01/02 05:12:15;;;;;;;1.42;0.60;;;;;;;;;;5087254;28;20483;-82
2024/01/02 05:15:01;;;;;;;2.15;0.68;;;;;;;;;;5078293;28;20028;-82
2024/01/02 05:17:46;;;;;;;1.63;0.80;;;;;;;;;;5087242;28;20134;-82
2024/01/02 05:20:32;;;;;;;0.60;0.60;;;;;;;;;;5087020;28;20603;-82
2024/01/02 05:23:17;;;;;;;0.80;0.60;;;;;;;;;;5087647;28;20030;-81
2024/01/02 05:26:02;;;;;;;0.73;0.60;;;;;;;;;;5089324;28;20174;-81
2024/01/02 05:28:47;;;;;;;1.95;0.70;;;;;;;;;;5107972;28;20051;-81
2024/01/02 05:31:33;;;;;;;0.47;0.47;;;;;;;;;;5074047;28;20028;-81
2024/01/02 05:34:18;;;;;;;1.83;0.80;;;;;;;;;;5083906;28;20028;-81
2024/01/02 05:37:03;;;;;;;2.47;0.75;;;;;;;;;;5086608;28;20028;-80
2024/01/02 05:39:48;;;;;;;0.50;0.50;;;;;;;;;;5087515;28;20028;-80
2024/01/02 05:42:34;;;;;;;1.30;0.70;;;;;;;;;;5087181;28;20153;-81
2024/01/02 05:45:19;;;;;;;1.85;0.90;;;;;;;;;;5087097;28;20020;-81
2024/01/02 05:48:04;;;;;;;2.50;0.77;;;;;;;;;;5087837;28;20027;-80
2024/01/02 05:50:50;;;;;;;1.98;0.57;;;;;;;;;;5086688;28;20398;-80
2024/01/02 05:53:35;;;;;;;2.45;0.70;;;;;;;;;;5087041;28;20058;-80
2024/01/02 05:56:20;;;;;;;0.77;0.70;;;;;;;;;;5086920;28;20031;-80
2024/01/02 05:59:06;;;;;;;0.65;0.65;;;;;;;;;;5086621;28;20020;-83
2024/01/02 06:01:51;;;;;;;1.02;0.70;;;;;;;;;;5086571;28;20043;-82
2024/01/02 06:04:36;;;;;;;1.13;0.80;;;;;;;;;;5086833;28;20071;-82
2024/01/02 06:07:21;;;;;;;3.42;0.70;;;;;;;;;;5086956;28;20072;-83
2024/01/02 06:10:07;;;;;;;0.75;0.70;;;;;;;;;;5086623;28;20016;-81
2024/01/02 06:12:52;;;;;;;2.42;0.60;;;;;;;;;;5082623;28;20031;-83
2024/01/02 06:15:38;;;;;;;0.95;0.60;;;;;;;;;;5066625;28;20091;-83
2024/01/02 06:18:23;;;;;;;0.65;0.60;;;;;;;;;;5067079;28;20034;-83
2024/01/02 06:21:09;;;;;;;2.55;0.80;;;;;;;;;;5066637;28;20048;-83
2024/01/02 06:23:57;;;;;;;0.85;0.70;;;;;;;;;;5067192;28;20024;-82
2024/01/02 06:26:42;;;;;;;0.70;0.70;;;;;;;;;;5082103;28;20367;-82
2024/01/02 06:29:27;;;;;;;0.70;0.70;;;;;;;;;;5105813;28;20460;-82
2024/01/02 06:32:12;;;;;;;1.10;0.90;;;;;;;;;;5082472;28;20399;-82
2024/01/02 06:34:58;;;;;;;1.45;1.23;;;;;;;;;;5087201;28;20032;-82
2024/01/02 06:37:43;;;;;;;2.10;0.80;;;;;;;;;;5090292;28;20032;-82
2024/01/02 06:40:28;;;;;;;1.10;0.60;;;;;;;;;;5080882;28;20047;-82
2024/01/02 06:43:14;;;;;;;1.30;0.90;;;;;;;;;;5069793;28;20038;-81
2024/01/02 06:46:00;;;;;;;0.88;0.80;;;;;;;;;;5070477;28;20032;-82
2024/01/02 06:48:45;;;;;;;2.63;0.75;;;;;;;;;;5070207;28;20536;-81
2024/01/02 06:51:30;;;;;;;1.08;0.60;;;;;;;;;;5070033;28;20039;-81
2024/01/02 06:54:16;;;;;;;0.85;0.60;;;;;;;;;;5069719;28;20024;-81
2024/01/02 06:57:01;;;;;;;1.35;0.70;;;;;;;;;;5070395;28;20052;-81
2024/01/02 06:59:46;;;;;;;0.85;0.60;;;;;;;;;;5070345;28;20066;-81
2024/01/02 07:02:32;;;;;;;1.05;0.70;;;;;;;;;;5070663;28;20643;-81
2024/01/02 07:05:18;;;;;;;0.85;0.75;;;;;;;;;;5089925;28;20496;-82
2024/01/02 07:08:03;;;;;;;2.25;0.80;;;;;;;;;;5089942;28;20050;-81
2024/01/02 07:10:49;;;;;;;1.20;0.80;;;;;;;;;;5089295;28;20097;-79
2024/01/02 07:13:34;;;;;;;0.82;0.70;;;;;;;;;;5079394;28;20020;-81
2024/01/02 07:16:19;;;;;;;2.35;0.70;;;;;;;;;;5068921;28;20107;-83
2024/01/02 07:19:04;;;;;;;2.85;1.00;;;;;;;;;;5069128;28;20095;-82
2024/01/02 07:21:49;;;;;;;1.67;0.95;;;;;;;;;;5068655;28;20040;-81
2024/01/02 07:24:35;;;;;;;1.15;0.63;;;;;;;;;;5069048;28;20031;-82
2024/01/02 07:27:20;;;;;;;1.88;0.80;;;;;;;;;;5094737;28;20063;-82
2024/01/02 07:30:05;;;;;;;0.60;0.60;;;;;;;;;;5068912;28;20024;-82
2024/01/02 07:32:51;;;;;;;1.42;0.80;;;;;;;;;;5086995;28;20024;-82
2024/01/02 07:35:36;;;;;;;0.90;0.75;;;;;;;;;;5089089;28;20035;-82
2024/01/02 07:38:25;;;;;;;1.45;0.70;;;;;;;;;;5089050;28;20032;-84
2024/01/02 07:41:11;;;;;;;0.75;0.63;;;;;;;;;;5076067;28;20029;-81
2024/01/02 07:43:56;;;;;;;2.70;0.75;;;;;;;;;;5068847;28;20032;-81
2024/01/02 07:46:42;;;;;;;2.10;0.80;;;;;;;;;;5068550;28;20028;-81
2024/01/02 07:49:27;;;;;;;1.55;0.73;;;;;;;;;;5068796;28;20103;-81
2024/01/02 07:52:12;;;;;;;2.15;0.80;;;;;;;;;;5068442;28;20044;-80
2024/01/02 07:54:57;;;;;;;0.60;0.60;;;;;;;;;;5068942;28;20028;-81
2024/01/02 07:57:43;;;;;;;1.10;0.80;;;;;;;;;;5068629;28;20033;-81
2024/01/02 08:00:28;;;;;;;2.22;0.80;;;;;;;;;;5083899;28;20056;-81
2024/01/02 08:03:14;;;;;;;1.20;0.70;;;;;;;;;;5086880;28;20488;-81
2024/01/02 08:05:59;;;;;;;1.67;1.05;;;;;;;;;;5088076;28;20027;-80
2024/01/02 08:08:45;;;;;;;0.77;0.70;;;;;;;;;;5088783;28;20024;-81
2024/01/02 08:11:30;;;;;;;2.70;0.70;;;;;;;;;;5088124;28;20024;-80
2024/01/02 08:14:15;;;;;;;0.68;0.68;;;;;;;;;;5072293;28;20499;-81
2024/01/02 08:17:01;;;;;;;0.60;0.60;;;;;;;;;;5068072;28;20089;-80
2024/01/02 08:19:46;;;;;;;1.20;0.70;;;;;;;;;;5068211;28;20020;-80
2024/01/02 08:22:31;;;;;;;0.70;0.65;;;;;;;;;;5067614;28;20053;-80
2024/01/02 08:25:16;;;;;;;1.10;0.80;;;;;;;;;;5069069;28;20159;-81
2024/01/02 08:28:02;;;;;;;1.90;0.60;;;;;;;;;;5102417;28;20028;-83
2024/01/02 08:30:47;;;;;;;0.65;0.57;;;;;;;;;;5082740;28;20024;-83
2024/01/02 08:33:33;;;;;;;0.60;0.50;;;;;;;;;;5088812;28;20031;-83
2024/01/02 08:36:18;;;;;;;0.73;0.60;;;;;;;;;;5078009;28;20043;-83
2024/01/02 08:39:05;;;;;;;0.50;0.50;;;;;;;;;;5105148;28;20015;-83
2024/01/02 08:41:50;;;;;;;0.98;0.60;;;;;;;;;;5079561;28;20498;-82
2024/01/02 08:44:35;;;;;;;0.50;0.50;;;;;;;;;;5067840;28;20039;-81
2024/01/02 08:47:21;;;;;;;0.75;0.60;;;;;;;;;;5086056;28;20023;-83
2024/01/02 08:50:09;;;;;;;0.65;0.57;;;;;;;;;;5088952;28;20035;-82
2024/01/02 08:52:54;;;;;;;0.52;0.52;;;;;;;;;;5067356;28;20017;-82
2024/01/02 08:55:40;;;;;;;0.50;0.50;;;;;;;;;;5073954;28;20027;-82
2024/01/02 08:58:25;;;;;;;1.27;0.63;;;;;;;;;;5088205;28;20493;-82
2024/01/02 09:01:11;;;;;;;0.88;0.65;;;;;;;;;;5087431;28;20036;-81
2024/01/02 09:03:56;;;;;;;0.90;0.65;;;;;;;;;;5087872;28;20020;-82
2024/01/02 09:06:42;;;;;;;1.33;0.60;;;;;;;;;;5085992;28;20028;-82
2024/01/02 09:09:27;;;;;;;0.50;0.50;;;;;;;;;;5087973;28;20024;-81
2024/01/02 09:12:12;;;;;;;0.60;0.60;;;;;;;;;;5085455;28;20028;-80
2024/01/02 09:14:57;;;;;;;0.75;0.60;;;;;;;;;;5066992;28;20475;-81
2024/01/02 09:17:43;;;;;;;0.70;0.52;;;;;;;;;;5087004;28;20036;-81
2024/01/02 09:20:28;;;;;;;0.50;0.50;;;;;;;;;;5087991;28;20080;-80
2024/01/02 09:23:13;;;;;;;0.57;0.57;;;;;;;;;;5087724;28;20039;-81
2024/01/02 09:26:00;;;;;;;0.50;0.40;;;;;;;;;;5086016;28;20387;-80
2024/01/02 09:28:45;;;;;;;0.40;0.40;;;;;;;;;;5108120;28;20026;-80
2024/01/02 09:31:30;;;;;;;0.88;0.60;;;;;;;;;;5095742;28;20044;-80
2024/01/02 09:34:15;;;;;;;0.50;0.50;;;;;;;;;;5085950;28;20048;-80
2024/01/02 09:37:01;;;;;;;1.50;0.70;;;;;;;;;;5077131;28;20025;-80
2024/01/02 09:39:46;;;;;;;0.80;0.60;;;;;;;;;;5108346;28;20397;-80
2024/01/02 09:42:41;;;;;;;1.25;0.93;;;;;;;;;;5071805;28;20044;-83
2024/01/02 09:45:29;;;;;;;0.60;0.60;;;;;;;;;;5066985;28;20555;-83
2024/01/02 09:48:34;;;;;;;0.45;0.45;;;;;;;;;;5066674;28;20029;-82
2024/01/02 09:51:31;;;;;;;0.57;0.57;;;;;;;;;;5071608;28;20107;-81
2024/01/02 09:54:40;;;;;;;1.83;0.60;;;;;;;;;;5086893;28;20024;-82
2024/01/02 09:57:34;;;;;;;1.00;0.90;;;;;;;;;;5087217;28;20028;-82
2024/01/02 10:00:38;;;;;;;0.73;0.63;;;;;;;;;;5086723;28;20032;-82
2024/01/02 10:03:33;;;;;;;0.50;0.50;;;;;;;;;;5087441;28;20043;-81
2024/01/02 10:06:19;;;;;;;0.50;0.50;;;;;;;;;;5090622;28;20032;-83
2024/01/02 10:09:09;;;;;;;0.55;0.55;;;;;;;;;;5091087;28;20165;-83
2024/01/02 10:12:10;;;;;;;0.50;0.50;;;;;;;;;;5090685;28;20067;-83
2024/01/02 10:14:55;;;;;;;1.27;0.85;;;;;;;;;;5070755;28;20020;-82
2024/01/02 10:17:53;;;;;;;0.40;0.40;;;;;;;;;;5087013;28;20105;-81
2024/01/02 10:20:38;;;;;;;0.50;0.50;;;;;;;;;;5091080;28;20043;-81
2024/01/02 10:23:40;;;;;;;0.50;0.50;;;;;;;;;;5070924;28;20028;-82
2024/01/02 10:26:27;;;;;;;0.88;0.55;;;;;;;;;;5071213;28;20036;-81
2024/01/02 10:29:16;;;;;;;0.63;0.60;;;;;;;;;;5068504;28;20249;-81
2024/01/02 10:32:08;;;;;;;0.88;0.50;;;;;;;;;;5071938;28;20037;-81
2024/01/02 10:35:04;;;;;;;0.45;0.45;;;;;;;;;;5069661;28;20115;-80
2024/01/02 10:37:58;;;;;;;0.52;0.50;;;;;;;;;;5088910;28;20110;-80
2024/01/02 10:40:47;;;;;;;1.98;0.60;;;;;;;;;;5110206;28;20385;-80
2024/01/02 10:43:42;;;;;;;0.50;0.50;;;;;;;;;;5069473;28;20024;-80
2024/01/02 10:46:27;;;;;;;0.63;0.55;;;;;;;;;;5069613;28;20032;-80
2024/01/02 10:49:31;;;;;;;0.50;0.50;;;;;;;;;;5084456;28;20054;-81
2024/01/02 10:52:19;;;;;;;0.70;0.60;;;;;;;;;;5089674;28;20100;-80
2024/01/02 10:55:05;;;;;;;0.52;0.52;;;;;;;;;;5089864;28;20032;-83
2024/01/02 10:57:53;;;;;;;0.80;0.70;;;;;;;;;;5089567;28;20111;-80
2024/01/02 11:00:45;;;;;;;0.60;0.50;;;;;;;;;;5089710;28;20031;-83
2024/01/02 11:03:33;;;;;;;0.70;0.70;;;;;;;;;;5090174;28;20157;-83
2024/01/02 11:06:40;;;;;;;0.75;0.75;;;;;;;;;;5075549;28;20027;-81
2024/01/02 11:09:35;;;;;;;0.80;0.60;;;;;;;;;;5089852;28;20054;-81
2024/01/02 11:12:22;;;;;;;0.50;0.50;;;;;;;;;;5089153;28;20047;-81
2024/01/02 11:15:11;;;;;;;1.17;0.50;;;;;;;;;;5089289;28;20085;-81
2024/01/02 11:17:57;;;;;;;0.60;0.60;;;;;;;;;;5088886;28;20119;-81
2024/01/02 11:20:54;;;;;;;0.52;0.50;;;;;;;;;;5089482;28;20120;-81
2024/01/02 11:23:40;;;;;;;0.77;0.63;;;;;;;;;;5069639;28;20029;-81
2024/01/02 11:26:29;;;;;;;0.50;0.50;;;;;;;;;;5083390;28;20020;-80
2024/01/02 11:29:20;;;;;;;3.67;0.60;;;;;;;;;;5076825;28;20382;-81
2024/01/02 11:32:08;;;;;;;0.75;0.47;;;;;;;;;;5093409;28;20112;-81
2024/01/02 11:35:00;;;;;;;0.50;0.50;;;;;;;;;;5110528;28;20030;-81
2024/01/02 11:37:51;;;;;;;1.45;0.60;;;;;;;;;;5113020;28;20053;-81
2024/01/02 11:40:51;;;;;;;0.50;0.50;;;;;;;;;;5127369;27;20024;-81
2024/01/02 11:43:56;;;;;;;;;;;;;;;;;;5097128;27;20066;-80
2024/01/02 11:46:43;;;;;;;0.93;0.60;;;;;;;;;;5116005;27;19907;-81
2024/01/02 11:49:30;;;;;;;1.05;0.50;;;;;;;;;;5116266;27;20427;-81
2024/01/02 11:52:17;;;;;;;0.90;0.57;;;;;;;;;;5115463;27;20117;-80
2024/01/02 11:55:14;;;;;;;2.10;0.50;;;;;;;;;;5115450;27;20397;-80
2024/01/02 11:58:05;;;;;;;0.73;0.60;;;;;;;;;;5129636;27;20027;-80
2024/01/02 12:01:09;;;;;;;0.95;0.63;;;;;;;;;;5129564;27;20038;-80
2024/01/02 12:04:01;;;;;;;0.65;0.65;;;;;;;;;;5130289;27;20024;-80
2024/01/02 12:07:06;;;;;;;0.88;0.60;;;;;;;;;;5115151;27;20498;-80
2024/01/02 12:09:52;;;;;;;0.70;0.70;;;;;;;;;;5112608;27;20123;-83
2024/01/02 12:12:40;;;;;;;1.00;0.73;;;;;;;;;;5115065;27;20031;-83
2024/01/02 12:15:32;;;;;;;1.25;0.60;;;;;;;;;;5135806;27;20038;-81
2024/01/02 12:18:19;;;;;;;0.77;0.70;;;;;;;;;;5120646;27;20023;-83
2024/01/02 12:21:09;;;;;;;0.80;0.80;;;;;;;;;;5114503;27;20118;-83
2024/01/02 12:23:55;;;;;;;1.30;0.90;;;;;;;;;;5114610;27;20025;-82
2024/01/02 12:26:41;;;;;;;0.70;0.60;;;;;;;;;;5113671;27;20381;-82
2024/01/02 12:29:48;;;;;;;0.73;0.60;;;;;;;;;;5115125;27;20027;-82
2024/01/02 12:32:52;;;;;;;0.60;0.60;;;;;;;;;;5114284;27;20039;-82
2024/01/02 12:35:47;;;;;;;1.13;0.80;;;;;;;;;;5122634;27;20037;-81
2024/01/02 12:38:40;;;;;;;0.60;0.60;;;;;;;;;;5119420;27;20030;-82
2024/01/02 12:41:29;;;;;;;0.77;0.77;;;;;;;;;;5113899;27;20019;-81
2024/01/02 12:44:15;;;;;;;0.60;0.60;;;;;;;;;;5094070;28;20039;-81
2024/01/02 12:47:05;;;;;;;2.35;0.80;;;;;;;;;;5095849;27;20027;-82
2024/01/02 12:50:02;;;;;;;1.58;0.73;;;;;;;;;;5114935;27;20053;-81
2024/01/02 12:52:48;;;;;;;2.13;0.60;;;;;;;;;;5114241;27;20027;-81
2024/01/02 12:55:36;;;;;;;0.70;0.70;;;;;;;;;;5114736;27;20173;-81
2024/01/02 12:58:22;;;;;;;0.70;0.63;;;;;;;;;;5113826;27;20035;-81
2024/01/02 13:01:08;;;;;;;1.23;0.60;;;;;;;;;;5114288;27;20051;-81
2024/01/02 13:03:53;;;;;;;1.30;0.50;;;;;;;;;;5114641;27;20023;-81
2024/01/02 13:06:39;;;;;;;1.48;0.82;;;;;;;;;;5114099;27;20114;-80
2024/01/02 13:09:24;;;;;;;0.82;0.80;;;;;;;;;;5114337;27;20031;-79
2024/01/02 13:12:11;;;;;;;0.70;0.60;;;;;;;;;;5114208;27;20023;-80
2024/01/02 13:14:56;;;;;;;1.25;0.75;;;;;;;;;;5134416;27;20606;-80
2024/01/02 13:17:41;;;;;;;0.60;0.60;;;;;;;;;;5128651;27;20019;-80
2024/01/02 13:20:27;;;;;;;4.07;0.98;;;;;;;;;;5114670;27;20027;-80
2024/01/02 13:23:12;;;;;;;0.63;0.60;;;;;;;;;;5114012;27;20037;-80
2024/01/02 13:25:57;;;;;;;1.45;0.90;;;;;;;;;;5114269;28;20299;-82
2024/01/02 13:28:42;;;;;;;1.30;0.70;;;;;;;;;;5113831;27;20031;-80
2024/01/02 13:31:33;;;;;;;0.88;0.70;;;;;;;;;;5114401;28;20100;-83
2024/01/02 13:34:27;;;;;;;1.38;0.70;;;;;;;;;;5114702;28;20389;-83
2024/01/02 13:37:23;;;;;;;0.65;0.57;;;;;;;;;;5120496;27;20012;-82
2024/01/02 13:40:21;;;;;;;1.30;0.70;;;;;;;;;;5124615;27;20042;-82
2024/01/02 13:43:10;;;;;;;0.60;0.60;;;;;;;;;;5129653;27;20386;-81
2024/01/02 13:46:07;;;;;;;1.98;0.80;;;;;;;;;;5118675;27;20423;-82
2024/01/02 13:48:53;;;;;;;0.75;0.70;;;;;;;;;;5118461;27;20053;-82
2024/01/02 13:51:44;;;;;;;1.13;0.80;;;;;;;;;;5118161;27;20144;-82
2024/01/02 13:54:39;;;;;;;1.15;0.70;;;;;;;;;;5118322;27;20366;-82
2024/01/02 13:57:34;;;;;;;1.27;0.88;;;;;;;;;;5118160;27;20068;-82
2024/01/02 14:00:20;;;;;;;0.77;0.77;;;;;;;;;;5118009;27;20019;-80
2024/01/02 14:03:06;;;;;;;1.35;0.60;;;;;;;;;;5103232;27;20023;-80
2024/01/02 14:05:53;;;;;;;1.33;0.60;;;;;;;;;;5103900;27;20039;-81
2024/01/02 14:08:38;;;;;;;0.95;0.80;;;;;;;;;;5117426;27;20023;-82
2024/01/02 14:11:24;;;;;;;0.60;0.60;;;;;;;;;;5117676;27;20112;-80
2024/01/02 14:14:14;;;;;;;1.38;0.60;;;;;;;;;;5130780;27;20022;-80
2024/01/02 14:17:01;;;;;;;1.95;0.90;;;;;;;;;;5138008;27;20034;-80
2024/01/02 14:19:48;;;;;;;1.20;0.80;;;;;;;;;;5118090;27;20157;-80
2024/01/02 14:22:40;;;;;;;0.77;0.68;;;;;;;;;;5116593;27;20123;-80
2024/01/02 14:25:31;;;;;;;0.77;0.70;;;;;;;;;;5117828;27;20023;-80
2024/01/02 14:28:17;;;;;;;0.80;0.70;;;;;;;;;;5117167;27;20424;-81
2024/01/02 14:31:23;;;;;;;1.58;0.70;;;;;;;;;;5116544;27;20027;-80
2024/01/02 14:34:13;;;;;;;0.60;0.60;;;;;;;;;;5068255;28;20039;-80
2024/01/02 14:37:03;;;;;;;1.40;0.60;;;;;;;;;;5132107;27;20082;-79
2024/01/02 14:39:54;;;;;;;0.77;0.57;;;;;;;;;;5116582;27;20544;-81
2024/01/02 14:42:40;;;;;;;0.73;0.60;;;;;;;;;;5115659;27;20031;-82
2024/01/02 14:45:31;;;;;;;1.52;0.88;;;;;;;;;;5116067;27;20544;-81
2024/01/02 14:48:20;;;;;;;0.77;0.68;;;;;;;;;;5116704;27;20026;-83
2024/01/02 14:51:11;;;;;;;0.60;0.60;;;;;;;;;;5115891;27;20063;-81
2024/01/02 14:54:15;;;;;;;1.10;0.85;;;;;;;;;;5116717;27;20208;-81
2024/01/02 14:57:00;;;;;;;1.35;1.15;;;;;;;;;;5116244;27;20070;-82
2024/01/02 14:59:54;;;;;;;0.45;0.40;;;;;;;;;;5115847;27;20444;-82
2024/01/02 15:02:58;;;;;;;0.60;0.60;;;;;;;;;;5116381;27;20489;-81
2024/01/02 15:05:48;;;;;;;3.00;0.70;;;;;;;;;;5116330;27;20019;-82
2024/01/02 15:08:33;;;;;;;1.90;0.60;;;;;;;;;;5116396;27;20034;-81
2024/01/02 15:11:25;;;;;;;0.75;0.50;;;;;;;;;;5095690;28;20132;-81
2024/01/02 15:14:10;;;;;;;0.50;0.50;;;;;;;;;;5109828;27;20019;-81
2024/01/02 15:17:14;;;;;;;2.08;0.82;;;;;;;;;;5116455;27;20024;-80
2024/01/02 15:20:09;;;;;;;1.00;0.60;;;;;;;;;;5115893;27;20122;-81
2024/01/02 15:23:17;;;;;;;2.08;0.70;;;;;;;;;;5101546;27;20054;-80
2024/01/02 15:26:09;;;;;;;2.25;0.60;;;;;;;;;;5088911;27;20095;-80
2024/01/02 15:29:07;;;;;;;0.60;0.40;;;;;;;;;;5115962;27;20473;-80
2024/01/02 15:31:59;;;;;;;1.33;0.70;;;;;;;;;;5116030;27;20071;-80
2024/01/02 15:34:49;;;;;;;0.50;0.50;;;;;;;;;;5116211;27;20064;-81
2024/01/02 15:37:34;;;;;;;;;;;;;;;;;;5130145;27;20023;-81
2024/01/02 15:40:19;;;;;;;0.73;0.70;;;;;;;;;;5115069;27;19951;-81
2024/01/02 15:43:13;;;;;;;0.52;0.52;;;;;;;;;;5114459;27;20023;-80
2024/01/02 15:46:04;;;;;;;0.52;0.43;;;;;;;;;;5100788;27;20034;-81
2024/01/02 15:49:05;;;;;;;1.10;0.80;;;;;;;;;;5115202;27;20019;-81
2024/01/02 15:52:03;;;;;;;1.02;0.80;;;;;;;;;;5115963;27;20023;-81
2024/01/02 15:54:53;;;;;;;1.23;0.68;;;;;;;;;;5115807;27;20518;-81
2024/01/02 15:57:42;;;;;;;0.57;0.50;;;;;;;;;;5115716;27;20031;-80
2024/01/02 16:00:27;;;;;;;1.35;0.82;;;;;;;;;;5114948;27;20027;-81
2024/01/02 16:03:12;;;;;;;1.38;0.68;;;;;;;;;;5114753;27;20053;-81
2024/01/02 16:06:16;;;;;;;0.88;0.70;;;;;;;;;;5123675;27;20105;-83
2024/01/02 16:09:06;;;;;;;1.17;0.85;;;;;;;;;;5128285;27;20027;-82
2024/01/02 16:12:10;;;;;;;0.93;0.70;;;;;;;;;;5115470;27;20027;-82
2024/01/02 16:15:04;;;;;;;1.38;0.60;;;;;;;;;;5115463;27;20132;-82
2024/01/02 16:18:09;;;;;;;2.28;1.00;;;;;;;;;;5115318;27;20453;-81
2024/01/02 16:20:57;;;;;;;1.50;0.75;;;;;;;;;;5113255;27;20042;-82
2024/01/02 16:24:01;;;;;;;0.73;0.60;;;;;;;;;;5113762;27;20057;-81
2024/01/02 16:26:59;;;;;;;2.38;0.60;;;;;;;;;;5114261;27;20477;-82
2024/01/02 16:29:51;;;;;;;1.42;0.93;;;;;;;;;;5114007;27;20381;-81
2024/01/02 16:32:36;;;;;;;0.60;0.60;;;;;;;;;;5100705;27;20027;-82
2024/01/02 16:35:38;;;;;;;0.60;0.60;;;;;;;;;;5119765;27;20286;-82
2024/01/02 16:38:24;;;;;;;1.02;0.80;;;;;;;;;;5121263;27;20031;-82
2024/01/02 16:41:19;;;;;;;0.70;0.70;;;;;;;;;;5114508;27;20027;-80
2024/01/02 16:44:04;;;;;;;0.60;0.60;;;;;;;;;;5113820;27;20088;-82
2024/01/02 16:46:50;;;;;;;0.52;0.52;;;;;;;;;;5114483;27;20051;-79